createdAt,value
2023-01-25T00:01:25.356Z,17.70
2023-01-25T00:04:27.592Z,17.77
2023-01-25T00:07:29.381Z,17.00
2023-01-25T00:10:31.678Z,14.47
2023-01-25T00:13:33.552Z,15.00
2023-01-25T00:16:36.398Z,13.40
2023-01-25T00:19:38.483Z,14.80
2023-01-25T00:22:40.754Z,14.07
2023-01-25T00:25:42.560Z,15.03
2023-01-25T00:28:50.365Z,13.13
2023-01-25T00:31:59.491Z,13.30
2023-01-25T00:35:01.678Z,12.13
2023-01-25T00:38:06.969Z,12.00
2023-01-25T00:41:09.647Z,10.67
2023-01-25T00:44:11.551Z,11.47
2023-01-25T00:47:14.258Z,12.17
2023-01-25T00:50:16.535Z,11.43
2023-01-25T00:53:19.784Z,10.63
2023-01-25T00:56:21.683Z,13.97
2023-01-25T00:59:24.855Z,13.97
2023-01-25T01:02:26.697Z,14.23
2023-01-25T01:05:29.773Z,15.27
2023-01-25T01:08:33.956Z,16.53
2023-01-25T01:11:35.982Z,17.40
2023-01-25T01:14:37.915Z,18.70
2023-01-25T01:17:40.361Z,18.30
2023-01-25T01:20:42.219Z,19.60
2023-01-25T01:23:44.711Z,19.83
2023-01-25T01:26:46.635Z,18.43
2023-01-25T01:29:48.632Z,18.13
2023-01-25T01:32:52.012Z,18.63
2023-01-25T01:35:54.393Z,18.87
2023-01-25T01:38:56.533Z,17.87
2023-01-25T01:41:58.568Z,17.03
2023-01-25T01:45:00.488Z,17.17
2023-01-25T01:48:02.900Z,17.93
2023-01-25T01:51:47.232Z,15.40
2023-01-25T01:55:10.996Z,15.60
2023-01-25T01:58:14.129Z,16.10
2023-01-25T02:01:17.476Z,15.43
2023-01-25T02:04:20.587Z,17.90
2023-01-25T02:07:35.023Z,15.60
2023-01-25T02:10:37.548Z,14.57
2023-01-25T02:13:39.791Z,14.07
2023-01-25T02:16:42.457Z,14.43
2023-01-25T02:20:11.060Z,12.80
2023-01-25T02:23:37.127Z,11.50
2023-01-25T02:26:40.279Z,9.13
2023-01-25T02:29:43.109Z,8.20
2023-01-25T02:32:45.029Z,7.93
2023-01-25T02:35:51.467Z,7.70
2023-01-25T02:39:26.814Z,8.03
2023-01-25T02:42:31.500Z,7.67
2023-01-25T02:45:33.528Z,7.83
2023-01-25T02:48:35.446Z,9.37
2023-01-25T02:51:41.609Z,8.03
2023-01-25T02:54:43.710Z,9.17
2023-01-25T02:57:46.525Z,8.53
2023-01-25T03:00:48.529Z,8.03
2023-01-25T03:03:50.565Z,7.63
2023-01-25T03:06:52.548Z,7.03
2023-01-25T03:09:54.594Z,8.07
2023-01-25T03:12:56.520Z,7.67
2023-01-25T03:16:07.468Z,7.13
2023-01-25T03:19:09.771Z,7.87
2023-01-25T03:22:11.770Z,7.60
2023-01-25T03:25:13.733Z,7.57
2023-01-25T03:28:15.837Z,7.27
2023-01-25T03:31:18.682Z,7.43
2023-01-25T03:34:21.324Z,8.17
2023-01-25T03:37:23.279Z,7.43
2023-01-25T03:40:25.852Z,8.03
2023-01-25T03:43:27.925Z,7.77
2023-01-25T03:46:30.796Z,8.27
2023-01-25T03:49:32.653Z,7.57
2023-01-25T03:52:47.666Z,7.63
2023-01-25T03:55:50.398Z,7.20
2023-01-25T03:58:52.632Z,7.90
2023-01-25T04:01:54.637Z,7.63
2023-01-25T04:04:56.642Z,7.67
2023-01-25T04:07:58.503Z,7.87
2023-01-25T04:11:06.037Z,7.97
2023-01-25T04:14:07.991Z,7.57
2023-01-25T04:17:12.083Z,7.93
2023-01-25T04:20:13.987Z,7.37
2023-01-25T04:23:16.059Z,8.23
2023-01-25T04:26:17.929Z,8.70
2023-01-25T04:29:26.172Z,8.23
2023-01-25T04:32:37.553Z,8.20
2023-01-25T04:35:40.575Z,8.13
2023-01-25T04:38:42.667Z,9.47
2023-01-25T04:41:44.902Z,8.17
2023-01-25T04:44:46.919Z,7.50
2023-01-25T04:47:50.804Z,7.60
2023-01-25T04:50:52.683Z,7.07
2023-01-25T04:53:55.607Z,6.97
2023-01-25T04:56:57.441Z,7.63
2023-01-25T04:59:59.803Z,5.17
2023-01-25T05:03:01.780Z,6.80
2023-01-25T05:06:03.762Z,6.57
2023-01-25T05:09:06.308Z,6.73
2023-01-25T05:12:12.146Z,7.37
2023-01-25T05:15:14.191Z,6.93
2023-01-25T05:18:16.217Z,6.80
2023-01-25T05:21:36.937Z,8.00
2023-01-25T05:24:42.243Z,8.77
2023-01-25T05:27:44.099Z,8.27
2023-01-25T05:30:46.504Z,7.10
2023-01-25T05:33:48.457Z,9.00
2023-01-25T05:36:50.572Z,7.63
2023-01-25T05:39:52.460Z,8.07
2023-01-25T05:42:58.610Z,6.97
2023-01-25T05:46:00.558Z,6.23
2023-01-25T05:49:02.601Z,6.37
2023-01-25T05:52:04.636Z,5.87
2023-01-25T05:55:08.004Z,6.13
2023-01-25T05:58:10.475Z,5.73
2023-01-25T06:01:13.410Z,6.27
2023-01-25T06:04:16.522Z,6.20
2023-01-25T06:07:18.679Z,5.70
2023-01-25T06:10:20.526Z,6.03
2023-01-25T06:13:22.672Z,6.07
2023-01-25T06:16:24.898Z,6.10
2023-01-25T06:19:27.012Z,6.20
2023-01-25T06:22:28.894Z,5.83
2023-01-25T06:25:30.851Z,6.40
2023-01-25T06:28:33.807Z,6.33
2023-01-25T06:31:36.005Z,5.80
2023-01-25T06:34:38.357Z,5.27
2023-01-25T06:37:40.591Z,5.07
2023-01-25T06:40:42.488Z,6.07
2023-01-25T06:43:44.898Z,5.87
2023-01-25T06:46:46.909Z,5.80
2023-01-25T06:49:49.436Z,5.20
2023-01-25T06:52:53.167Z,6.07
2023-01-25T06:56:05.693Z,6.00
2023-01-25T06:59:07.722Z,5.67
2023-01-25T07:02:15.779Z,5.00
2023-01-25T07:05:17.735Z,5.30
2023-01-25T07:08:22.902Z,4.70
2023-01-25T07:11:24.787Z,5.00
2023-01-25T07:14:26.742Z,5.70
2023-01-25T07:17:28.659Z,4.77
2023-01-25T07:20:30.621Z,3.23
2023-01-25T07:23:33.613Z,4.40
2023-01-25T07:26:35.580Z,5.40
2023-01-25T07:29:37.572Z,4.67
2023-01-25T07:32:39.616Z,4.40
2023-01-25T07:35:41.516Z,5.37
2023-01-25T07:38:43.730Z,5.10
2023-01-25T07:41:45.650Z,5.10
2023-01-25T07:44:48.452Z,5.20
2023-01-25T07:47:50.461Z,5.20
2023-01-25T07:51:11.779Z,5.50
2023-01-25T07:54:13.678Z,3.93
2023-01-25T07:57:15.711Z,4.43
2023-01-25T08:00:18.271Z,3.73
2023-01-25T08:03:22.576Z,4.47
2023-01-25T08:06:27.959Z,3.90
2023-01-25T08:09:30.562Z,4.70
2023-01-25T08:12:34.420Z,5.43
2023-01-25T08:15:37.643Z,4.83
2023-01-25T08:18:39.458Z,4.43
2023-01-25T08:21:41.580Z,5.20
2023-01-25T08:24:43.588Z,4.97
2023-01-25T08:27:46.299Z,5.30
2023-01-25T08:30:56.810Z,5.30
2023-01-25T08:34:01.381Z,4.63
2023-01-25T08:37:05.780Z,5.70
2023-01-25T08:40:08.630Z,4.27
2023-01-25T08:43:10.842Z,4.07
2023-01-25T08:46:14.015Z,4.30
2023-01-25T08:49:16.247Z,4.67
2023-01-25T08:52:18.249Z,4.57
2023-01-25T08:55:20.091Z,4.83
2023-01-25T08:58:22.675Z,4.87
2023-01-25T09:01:24.638Z,4.17
2023-01-25T09:04:28.850Z,4.65
2023-01-25T09:07:32.577Z,4.50
2023-01-25T09:10:34.907Z,4.40
2023-01-25T09:13:37.352Z,4.43
2023-01-25T09:16:39.430Z,4.23
2023-01-25T09:19:42.735Z,4.67
2023-01-25T09:22:44.845Z,4.37
2023-01-25T09:25:46.736Z,6.13
2023-01-25T09:28:50.538Z,5.17
2023-01-25T09:31:52.801Z,5.20
2023-01-25T09:34:54.878Z,5.60
2023-01-25T09:37:57.035Z,6.37
2023-01-25T09:41:31.424Z,7.33
2023-01-25T09:44:45.440Z,7.00
2023-01-25T09:48:00.926Z,7.13
2023-01-25T09:51:20.097Z,6.90
2023-01-25T09:54:22.911Z,7.23
2023-01-25T09:57:32.370Z,7.57
2023-01-25T10:00:40.479Z,8.07
2023-01-25T10:03:49.037Z,7.03
2023-01-25T10:07:00.964Z,7.73
2023-01-25T10:10:08.123Z,7.40
2023-01-25T10:13:16.493Z,7.60
2023-01-25T10:16:32.809Z,5.10
2023-01-25T10:19:53.531Z,5.03
2023-01-25T10:23:35.713Z,4.93
2023-01-25T10:26:42.088Z,4.60
2023-01-25T10:29:44.519Z,4.00
2023-01-25T10:32:55.476Z,5.00
2023-01-25T10:36:00.417Z,8.23
2023-01-25T10:39:03.891Z,5.53
2023-01-25T10:42:12.235Z,5.80
2023-01-25T10:45:15.958Z,5.23
2023-01-25T10:48:24.879Z,4.30
2023-01-25T10:51:32.555Z,22.63
2023-01-25T10:54:34.459Z,5.07
2023-01-25T10:57:36.901Z,4.67
2023-01-25T11:00:40.724Z,4.67
2023-01-25T11:03:46.920Z,3.87
2023-01-25T11:06:51.626Z,3.23
2023-01-25T11:09:54.807Z,3.57
2023-01-25T11:13:15.203Z,4.07
2023-01-25T11:16:24.675Z,3.60
2023-01-25T11:19:28.630Z,3.70
2023-01-25T11:22:31.165Z,3.80
2023-01-25T11:25:34.360Z,4.03
2023-01-25T11:28:36.779Z,4.00
2023-01-25T11:31:45.567Z,3.93
2023-01-25T11:34:48.277Z,4.00
2023-01-25T11:38:12.037Z,4.70
2023-01-25T11:41:26.382Z,5.13
2023-01-25T11:45:04.464Z,5.30
2023-01-25T11:48:29.260Z,4.30
2023-01-25T11:51:41.810Z,4.13
2023-01-25T11:54:49.947Z,4.67
2023-01-25T11:57:57.881Z,4.73
2023-01-25T12:01:42.967Z,4.07
2023-01-25T12:05:16.396Z,4.03
2023-01-25T12:08:44.415Z,4.00
2023-01-25T12:12:02.066Z,4.07
2023-01-25T12:15:17.643Z,3.97
2023-01-25T12:18:47.638Z,6.80
2023-01-25T12:21:53.052Z,6.57
2023-01-25T12:25:08.408Z,5.83
2023-01-25T12:28:37.807Z,5.47
2023-01-25T12:32:00.556Z,6.13
2023-01-25T12:35:30.495Z,7.10
2023-01-25T12:39:03.774Z,6.93
2023-01-25T12:42:19.580Z,6.80
2023-01-25T12:45:27.995Z,6.30
2023-01-25T12:48:36.885Z,6.00
2023-01-25T12:51:40.323Z,7.10
2023-01-25T12:54:43.547Z,7.23
2023-01-25T12:57:54.192Z,6.70
2023-01-25T13:01:20.481Z,4.83
2023-01-25T13:04:55.207Z,3.70
2023-01-25T13:08:08.951Z,5.63
2023-01-25T13:11:28.986Z,5.27
2023-01-25T13:14:41.297Z,7.07
2023-01-25T13:17:43.263Z,7.57
2023-01-25T13:20:48.585Z,7.73
2023-01-25T13:24:14.747Z,8.83
2023-01-25T13:27:27.294Z,8.33
2023-01-25T13:30:32.486Z,8.67
2023-01-25T13:33:36.331Z,8.73
2023-01-25T13:36:41.120Z,8.60
2023-01-25T13:40:08.227Z,8.97
2023-01-25T13:43:18.496Z,8.37
2023-01-25T13:46:24.099Z,8.93
2023-01-25T13:49:43.352Z,9.87
2023-01-25T13:52:59.495Z,9.27
2023-01-25T13:56:02.209Z,10.80
2023-01-25T13:59:04.412Z,10.10
2023-01-25T14:02:20.157Z,10.93
2023-01-25T14:05:23.903Z,10.03
2023-01-25T14:08:27.185Z,10.67
2023-01-25T14:11:35.160Z,9.93
2023-01-25T14:14:38.431Z,9.67
2023-01-25T14:17:40.405Z,9.80
2023-01-25T14:20:43.314Z,8.93
2023-01-25T14:23:45.802Z,8.87
2023-01-25T14:26:47.805Z,8.90
2023-01-25T14:29:50.268Z,8.87
2023-01-25T14:32:54.403Z,8.47
2023-01-25T14:36:16.150Z,8.23
2023-01-25T14:39:29.397Z,9.00
2023-01-25T14:42:33.199Z,9.00
2023-01-25T14:45:35.108Z,10.07
2023-01-25T14:48:40.712Z,9.77
2023-01-25T14:51:46.545Z,10.10
2023-01-25T14:54:59.558Z,9.73
2023-01-25T14:58:02.145Z,10.00
2023-01-25T15:01:04.287Z,9.53
2023-01-25T15:04:11.695Z,10.10
2023-01-25T15:07:45.104Z,10.13
2023-01-25T15:10:51.195Z,9.70
2023-01-25T15:14:02.643Z,8.67
2023-01-25T15:17:04.513Z,9.57
2023-01-25T15:20:08.694Z,10.07
2023-01-25T15:23:21.604Z,9.30
2023-01-25T15:26:31.472Z,9.23
2023-01-25T15:29:33.452Z,9.33
2023-01-25T15:32:35.655Z,8.87
2023-01-25T15:35:37.567Z,9.87
2023-01-25T15:38:39.752Z,10.63
2023-01-25T15:41:42.097Z,10.70
2023-01-25T15:44:44.108Z,10.53
2023-01-25T15:47:46.077Z,10.00
2023-01-25T15:50:48.758Z,9.13
2023-01-25T15:53:50.643Z,9.37
2023-01-25T15:56:56.109Z,10.13
2023-01-25T16:00:00.579Z,10.90
2023-01-25T16:03:03.995Z,10.40
2023-01-25T16:06:18.448Z,11.40
2023-01-25T16:09:22.260Z,10.83
2023-01-25T16:12:25.569Z,10.90
2023-01-25T16:15:27.458Z,13.20
2023-01-25T16:18:29.425Z,13.43
2023-01-25T16:21:31.421Z,14.07
2023-01-25T16:24:33.335Z,12.50
2023-01-25T16:27:36.527Z,12.27
2023-01-25T16:30:38.611Z,12.63
2023-01-25T16:33:41.555Z,14.17
2023-01-25T16:36:48.051Z,14.53
2023-01-25T16:39:52.096Z,13.43
2023-01-25T16:42:54.036Z,11.40
2023-01-25T16:45:58.163Z,11.23
2023-01-25T16:49:00.298Z,12.40
2023-01-25T16:52:03.379Z,12.37
2023-01-25T16:55:05.700Z,12.40
2023-01-25T16:58:08.126Z,13.13
2023-01-25T17:01:11.977Z,12.43
2023-01-25T17:04:14.889Z,12.13
2023-01-25T17:07:16.839Z,13.23
2023-01-25T17:10:19.055Z,12.53
2023-01-25T17:13:20.929Z,11.33
2023-01-25T17:16:26.014Z,10.53
2023-01-25T17:19:27.959Z,11.20
2023-01-25T17:22:34.111Z,11.67
2023-01-25T17:25:40.580Z,10.60
2023-01-25T17:28:43.828Z,10.33
2023-01-25T17:31:45.814Z,9.80
2023-01-25T17:34:48.371Z,9.70
2023-01-25T17:37:54.103Z,10.83
2023-01-25T17:40:56.066Z,10.50
2023-01-25T17:43:58.017Z,12.80
2023-01-25T17:46:59.975Z,11.90
2023-01-25T17:50:01.839Z,12.53
2023-01-25T17:53:05.360Z,14.30
2023-01-25T17:56:08.663Z,15.27
2023-01-25T17:59:12.117Z,12.53
2023-01-25T18:02:13.970Z,14.33
2023-01-25T18:05:15.980Z,12.37
2023-01-25T18:08:17.775Z,12.00
2023-01-25T18:11:26.370Z,13.33
2023-01-25T18:14:29.657Z,11.87
2023-01-25T18:17:38.451Z,12.30
2023-01-25T18:20:40.449Z,10.97
2023-01-25T18:23:46.865Z,13.20
2023-01-25T18:26:48.965Z,11.40
2023-01-25T18:30:08.747Z,12.80
2023-01-25T18:33:10.787Z,11.97
2023-01-25T18:36:17.501Z,13.17
2023-01-25T18:39:19.358Z,12.27
2023-01-25T18:42:24.007Z,11.23
2023-01-25T18:45:25.972Z,11.30
2023-01-25T18:48:32.225Z,11.33
2023-01-25T18:51:38.970Z,12.43
2023-01-25T18:54:47.075Z,12.30
2023-01-25T18:57:49.019Z,13.50
2023-01-25T19:00:51.059Z,13.70
2023-01-25T19:03:53.298Z,13.10
2023-01-25T19:06:59.436Z,12.17
2023-01-25T19:10:01.336Z,11.93
2023-01-25T19:13:03.220Z,11.27
2023-01-25T19:16:16.252Z,12.40
2023-01-25T19:19:18.541Z,13.57
2023-01-25T19:22:20.465Z,11.80
2023-01-25T19:25:23.918Z,13.00
2023-01-25T19:28:25.833Z,12.10
2023-01-25T19:31:28.257Z,10.47
2023-01-25T19:34:30.127Z,11.07
2023-01-25T19:37:32.855Z,10.90
2023-01-25T19:40:34.749Z,12.30
2023-01-25T19:43:37.432Z,11.77
2023-01-25T19:46:39.467Z,12.30
2023-01-25T19:49:44.096Z,12.40
2023-01-25T19:52:47.010Z,11.07
2023-01-25T19:55:49.477Z,13.17
2023-01-25T19:58:51.544Z,13.03
2023-01-25T20:01:54.337Z,12.67
2023-01-25T20:04:56.967Z,12.63
2023-01-25T20:07:59.401Z,12.77
2023-01-25T20:11:12.566Z,12.03
2023-01-25T20:14:15.945Z,12.13
2023-01-25T20:17:19.216Z,8.80
2023-01-25T20:20:21.254Z,7.37
2023-01-25T20:23:23.439Z,6.97
2023-01-25T20:26:28.088Z,7.73
2023-01-25T20:29:30.093Z,6.40
2023-01-25T20:32:33.608Z,6.70
2023-01-25T20:35:36.178Z,6.17
2023-01-25T20:38:38.243Z,6.60
2023-01-25T20:41:40.406Z,6.73
2023-01-25T20:44:44.419Z,6.23
2023-01-25T20:47:46.692Z,5.83
2023-01-25T20:50:48.960Z,5.80
2023-01-25T20:53:51.554Z,6.40
2023-01-25T20:56:53.392Z,6.30
2023-01-25T20:59:55.347Z,5.80
2023-01-25T21:02:57.872Z,6.83
2023-01-25T21:06:01.036Z,6.40
2023-01-25T21:09:04.698Z,6.37
2023-01-25T21:12:07.040Z,7.00
2023-01-25T21:15:10.154Z,6.83
2023-01-25T21:18:12.291Z,6.70
2023-01-25T21:21:16.778Z,6.40
2023-01-25T21:24:18.878Z,6.80
2023-01-25T21:27:21.397Z,5.77
2023-01-25T21:30:23.357Z,5.87
2023-01-25T21:33:25.695Z,6.37
2023-01-25T21:36:28.111Z,6.07
2023-01-25T21:39:30.475Z,6.23
2023-01-25T21:42:32.548Z,6.03
2023-01-25T21:45:53.190Z,6.00
2023-01-25T21:49:15.490Z,5.80
2023-01-25T21:52:17.562Z,11.17
2023-01-25T21:55:19.472Z,13.33
2023-01-25T21:58:21.965Z,15.60
2023-01-25T22:01:23.915Z,10.80
2023-01-25T22:04:26.482Z,13.73
2023-01-25T22:07:37.918Z,15.00
2023-01-25T22:10:41.179Z,16.53
2023-01-25T22:13:43.077Z,13.37
2023-01-25T22:16:46.481Z,16.53
2023-01-25T22:19:49.302Z,14.80
2023-01-25T22:22:51.532Z,14.43
2023-01-25T22:26:11.709Z,15.27
2023-01-25T22:29:15.364Z,14.77
2023-01-25T22:32:17.975Z,15.20
2023-01-25T22:35:20.291Z,14.90
2023-01-25T22:38:22.585Z,14.43
2023-01-25T22:41:28.113Z,15.20
2023-01-25T22:44:29.986Z,15.33
2023-01-25T22:47:33.338Z,12.00
2023-01-25T22:50:35.523Z,7.93
2023-01-25T22:53:37.507Z,7.57
2023-01-25T22:56:39.539Z,6.50
2023-01-25T22:59:41.503Z,5.50
2023-01-25T23:02:43.520Z,5.60
2023-01-25T23:05:45.507Z,5.40
2023-01-25T23:08:48.442Z,5.27
2023-01-25T23:11:50.888Z,5.33
2023-01-25T23:14:54.435Z,5.30
2023-01-25T23:18:14.925Z,5.57
2023-01-25T23:21:19.185Z,6.83
2023-01-25T23:24:23.297Z,8.53
2023-01-25T23:27:25.513Z,8.97
2023-01-25T23:30:27.491Z,5.90
2023-01-25T23:33:29.688Z,8.30
2023-01-25T23:36:34.158Z,6.90
2023-01-25T23:39:36.117Z,7.03
2023-01-25T23:42:39.041Z,5.87
2023-01-25T23:45:41.461Z,5.63
2023-01-25T23:48:44.262Z,6.43
2023-01-25T23:51:46.266Z,6.83
2023-01-25T23:54:48.229Z,6.50
2023-01-25T23:57:50.174Z,6.00
